sensor_id;sensor_type;location;lat;lon;timestamp;P1;durP1;ratioP1;P2;durP2;ratioP2
48098;SDS011;33877;47.444;18.934;2022-07-23T00:00:55;8.90;;;5.07;;
48098;SDS011;33877;47.444;18.934;2022-07-23T00:03:27;8.35;;;5.00;;
48098;SDS011;33877;47.444;18.934;2022-07-23T00:05:56;8.52;;;4.85;;
48098;SDS011;33877;47.444;18.934;2022-07-23T00:08:29;6.90;;;4.20;;
48098;SDS011;33877;47.444;18.934;2022-07-23T00:10:59;8.65;;;4.00;;
48098;SDS011;33877;47.444;18.934;2022-07-23T00:13:31;10.00;;;4.30;;
48098;SDS011;33877;47.444;18.934;2022-07-23T00:15:59;8.18;;;4.57;;
48098;SDS011;33877;47.444;18.934;2022-07-23T00:18:30;8.90;;;4.32;;
48098;SDS011;33877;47.444;18.934;2022-07-23T00:20:59;7.87;;;4.25;;
48098;SDS011;33877;47.444;18.934;2022-07-23T00:23:31;6.05;;;3.97;;
48098;SDS011;33877;47.444;18.934;2022-07-23T00:26:00;8.10;;;4.43;;
48098;SDS011;33877;47.444;18.934;2022-07-23T00:28:32;7.00;;;4.70;;
48098;SDS011;33877;47.444;18.934;2022-07-23T00:31:01;6.80;;;4.50;;
48098;SDS011;33877;47.444;18.934;2022-07-23T00:33:32;7.53;;;4.55;;
48098;SDS011;33877;47.444;18.934;2022-07-23T00:36:03;6.65;;;4.72;;
48098;SDS011;33877;47.444;18.934;2022-07-23T00:38:34;7.20;;;4.40;;
48098;SDS011;33877;47.444;18.934;2022-07-23T00:41:04;7.28;;;4.57;;
48098;SDS011;33877;47.444;18.934;2022-07-23T00:43:37;7.87;;;4.75;;
48098;SDS011;33877;47.444;18.934;2022-07-23T00:46:07;7.00;;;4.65;;
48098;SDS011;33877;47.444;18.934;2022-07-23T00:48:39;7.70;;;4.68;;
48098;SDS011;33877;47.444;18.934;2022-07-23T00:51:08;7.35;;;4.57;;
48098;SDS011;33877;47.444;18.934;2022-07-23T00:53:38;12.77;;;4.82;;
48098;SDS011;33877;47.444;18.934;2022-07-23T00:56:10;8.85;;;5.03;;
48098;SDS011;33877;47.444;18.934;2022-07-23T00:58:40;7.55;;;4.12;;
48098;SDS011;33877;47.444;18.934;2022-07-23T01:01:14;10.07;;;4.90;;
48098;SDS011;33877;47.444;18.934;2022-07-23T01:03:45;9.15;;;4.97;;
48098;SDS011;33877;47.444;18.934;2022-07-23T01:06:18;8.07;;;4.68;;
48098;SDS011;33877;47.444;18.934;2022-07-23T01:08:48;7.85;;;4.87;;
48098;SDS011;33877;47.444;18.934;2022-07-23T01:11:21;8.57;;;4.60;;
48098;SDS011;33877;47.444;18.934;2022-07-23T01:13:53;7.62;;;4.45;;
48098;SDS011;33877;47.444;18.934;2022-07-23T01:16:25;6.93;;;4.60;;
48098;SDS011;33877;47.444;18.934;2022-07-23T01:21:28;11.68;;;6.25;;
48098;SDS011;33877;47.444;18.934;2022-07-23T01:23:57;9.00;;;4.65;;
48098;SDS011;33877;47.444;18.934;2022-07-23T01:26:29;7.50;;;4.65;;
48098;SDS011;33877;47.444;18.934;2022-07-23T01:28:59;6.80;;;4.78;;
48098;SDS011;33877;47.444;18.934;2022-07-23T01:31:31;7.03;;;5.10;;
48098;SDS011;33877;47.444;18.934;2022-07-23T01:34:02;8.68;;;4.72;;
48098;SDS011;33877;47.444;18.934;2022-07-23T01:36:35;8.43;;;4.80;;
48098;SDS011;33877;47.444;18.934;2022-07-23T01:39:06;7.57;;;4.87;;
48098;SDS011;33877;47.444;18.934;2022-07-23T01:41:39;7.70;;;4.60;;
48098;SDS011;33877;47.444;18.934;2022-07-23T01:44:13;12.18;;;4.87;;
48098;SDS011;33877;47.444;18.934;2022-07-23T01:46:45;6.95;;;4.80;;
48098;SDS011;33877;47.444;18.934;2022-07-23T01:49:21;8.70;;;4.65;;
48098;SDS011;33877;47.444;18.934;2022-07-23T01:51:54;8.90;;;4.78;;
48098;SDS011;33877;47.444;18.934;2022-07-23T01:54:32;10.02;;;4.85;;
48098;SDS011;33877;47.444;18.934;2022-07-23T01:57:06;8.15;;;5.10;;
48098;SDS011;33877;47.444;18.934;2022-07-23T01:59:36;7.45;;;5.03;;
48098;SDS011;33877;47.444;18.934;2022-07-23T02:02:10;8.63;;;5.12;;
48098;SDS011;33877;47.444;18.934;2022-07-23T02:04:44;7.75;;;4.45;;
48098;SDS011;33877;47.444;18.934;2022-07-23T02:09:45;9.00;;;4.50;;
48098;SDS011;33877;47.444;18.934;2022-07-23T02:12:18;7.95;;;5.22;;
48098;SDS011;33877;47.444;18.934;2022-07-23T02:14:49;7.22;;;4.90;;
48098;SDS011;33877;47.444;18.934;2022-07-23T02:17:20;6.82;;;4.75;;
48098;SDS011;33877;47.444;18.934;2022-07-23T02:19:51;8.23;;;4.65;;
48098;SDS011;33877;47.444;18.934;2022-07-23T02:22:23;10.07;;;5.50;;
48098;SDS011;33877;47.444;18.934;2022-07-23T02:24:57;7.32;;;5.10;;
48098;SDS011;33877;47.444;18.934;2022-07-23T02:27:27;7.47;;;5.07;;
48098;SDS011;33877;47.444;18.934;2022-07-23T02:30:00;7.60;;;5.07;;
48098;SDS011;33877;47.444;18.934;2022-07-23T02:32:34;8.60;;;4.65;;
48098;SDS011;33877;47.444;18.934;2022-07-23T02:35:11;7.37;;;4.87;;
48098;SDS011;33877;47.444;18.934;2022-07-23T02:37:42;7.15;;;4.95;;
48098;SDS011;33877;47.444;18.934;2022-07-23T02:40:13;10.38;;;5.75;;
48098;SDS011;33877;47.444;18.934;2022-07-23T02:42:44;8.80;;;5.20;;
48098;SDS011;33877;47.444;18.934;2022-07-23T02:45:16;8.98;;;5.65;;
48098;SDS011;33877;47.444;18.934;2022-07-23T02:47:46;9.55;;;5.15;;
48098;SDS011;33877;47.444;18.934;2022-07-23T02:50:18;7.40;;;4.93;;
48098;SDS011;33877;47.444;18.934;2022-07-23T02:52:49;8.40;;;4.57;;
48098;SDS011;33877;47.444;18.934;2022-07-23T02:55:20;7.95;;;4.87;;
48098;SDS011;33877;47.444;18.934;2022-07-23T02:57:49;10.60;;;5.65;;
48098;SDS011;33877;47.444;18.934;2022-07-23T03:00:18;7.78;;;5.20;;
48098;SDS011;33877;47.444;18.934;2022-07-23T03:02:49;7.10;;;4.68;;
48098;SDS011;33877;47.444;18.934;2022-07-23T03:05:20;7.68;;;4.85;;
48098;SDS011;33877;47.444;18.934;2022-07-23T03:07:51;7.43;;;4.57;;
48098;SDS011;33877;47.444;18.934;2022-07-23T03:10:21;7.25;;;4.85;;
48098;SDS011;33877;47.444;18.934;2022-07-23T03:12:51;9.40;;;4.75;;
48098;SDS011;33877;47.444;18.934;2022-07-23T03:15:21;9.00;;;5.03;;
48098;SDS011;33877;47.444;18.934;2022-07-23T03:17:53;7.15;;;4.80;;
48098;SDS011;33877;47.444;18.934;2022-07-23T03:20:22;7.43;;;4.97;;
48098;SDS011;33877;47.444;18.934;2022-07-23T03:22:54;6.87;;;4.80;;
48098;SDS011;33877;47.444;18.934;2022-07-23T03:25:24;7.28;;;4.55;;
48098;SDS011;33877;47.444;18.934;2022-07-23T03:27:54;10.65;;;4.75;;
48098;SDS011;33877;47.444;18.934;2022-07-23T03:30:26;12.13;;;5.25;;
48098;SDS011;33877;47.444;18.934;2022-07-23T03:32:58;8.68;;;5.25;;
48098;SDS011;33877;47.444;18.934;2022-07-23T03:35:29;9.02;;;5.32;;
48098;SDS011;33877;47.444;18.934;2022-07-23T03:38:03;10.57;;;5.03;;
48098;SDS011;33877;47.444;18.934;2022-07-23T03:40:40;6.65;;;5.03;;
48098;SDS011;33877;47.444;18.934;2022-07-23T03:43:13;12.15;;;5.20;;
48098;SDS011;33877;47.444;18.934;2022-07-23T03:45:42;7.82;;;5.37;;
48098;SDS011;33877;47.444;18.934;2022-07-23T03:48:14;8.50;;;4.80;;
48098;SDS011;33877;47.444;18.934;2022-07-23T03:50:44;7.97;;;5.00;;
48098;SDS011;33877;47.444;18.934;2022-07-23T03:53:14;8.10;;;4.45;;
48098;SDS011;33877;47.444;18.934;2022-07-23T03:55:47;8.13;;;5.00;;
48098;SDS011;33877;47.444;18.934;2022-07-23T03:58:17;9.68;;;4.55;;
48098;SDS011;33877;47.444;18.934;2022-07-23T04:00:47;7.70;;;4.95;;
48098;SDS011;33877;47.444;18.934;2022-07-23T04:03:18;9.07;;;4.57;;
48098;SDS011;33877;47.444;18.934;2022-07-23T04:05:50;9.63;;;4.82;;
48098;SDS011;33877;47.444;18.934;2022-07-23T04:08:24;6.30;;;5.00;;
48098;SDS011;33877;47.444;18.934;2022-07-23T04:13:25;7.28;;;4.30;;
48098;SDS011;33877;47.444;18.934;2022-07-23T04:15:55;7.70;;;4.43;;
48098;SDS011;33877;47.444;18.934;2022-07-23T04:18:23;7.95;;;5.05;;
48098;SDS011;33877;47.444;18.934;2022-07-23T04:21:01;8.75;;;4.70;;
48098;SDS011;33877;47.444;18.934;2022-07-23T04:23:29;6.70;;;4.82;;
48098;SDS011;33877;47.444;18.934;2022-07-23T04:25:59;8.60;;;4.80;;
48098;SDS011;33877;47.444;18.934;2022-07-23T04:28:30;7.25;;;5.07;;
48098;SDS011;33877;47.444;18.934;2022-07-23T04:30:59;11.43;;;5.22;;
48098;SDS011;33877;47.444;18.934;2022-07-23T04:33:29;8.50;;;4.97;;
48098;SDS011;33877;47.444;18.934;2022-07-23T04:36:03;7.35;;;5.00;;
48098;SDS011;33877;47.444;18.934;2022-07-23T04:38:33;9.27;;;5.95;;
48098;SDS011;33877;47.444;18.934;2022-07-23T04:41:07;8.82;;;5.10;;
48098;SDS011;33877;47.444;18.934;2022-07-23T04:43:40;8.27;;;4.75;;
48098;SDS011;33877;47.444;18.934;2022-07-23T04:46:10;7.93;;;4.97;;
48098;SDS011;33877;47.444;18.934;2022-07-23T04:48:40;9.52;;;5.15;;
48098;SDS011;33877;47.444;18.934;2022-07-23T04:51:11;9.60;;;5.30;;
48098;SDS011;33877;47.444;18.934;2022-07-23T04:53:40;8.15;;;4.40;;
48098;SDS011;33877;47.444;18.934;2022-07-23T04:56:10;7.72;;;5.45;;
48098;SDS011;33877;47.444;18.934;2022-07-23T04:58:41;7.30;;;4.60;;
48098;SDS011;33877;47.444;18.934;2022-07-23T05:01:14;8.23;;;5.12;;
48098;SDS011;33877;47.444;18.934;2022-07-23T05:03:50;10.10;;;5.07;;
48098;SDS011;33877;47.444;18.934;2022-07-23T05:06:23;7.60;;;4.60;;
48098;SDS011;33877;47.444;18.934;2022-07-23T05:08:54;8.93;;;5.12;;
48098;SDS011;33877;47.444;18.934;2022-07-23T05:11:24;6.68;;;4.90;;
48098;SDS011;33877;47.444;18.934;2022-07-23T05:13:55;8.43;;;5.43;;
48098;SDS011;33877;47.444;18.934;2022-07-23T05:19:00;8.80;;;4.90;;
48098;SDS011;33877;47.444;18.934;2022-07-23T05:24:06;14.20;;;4.47;;
48098;SDS011;33877;47.444;18.934;2022-07-23T05:26:36;9.05;;;4.90;;
48098;SDS011;33877;47.444;18.934;2022-07-23T05:29:07;8.38;;;5.03;;
48098;SDS011;33877;47.444;18.934;2022-07-23T05:31:38;7.03;;;4.95;;
48098;SDS011;33877;47.444;18.934;2022-07-23T05:34:09;8.25;;;5.12;;
48098;SDS011;33877;47.444;18.934;2022-07-23T05:36:46;8.05;;;5.05;;
48098;SDS011;33877;47.444;18.934;2022-07-23T05:39:20;7.15;;;4.60;;
48098;SDS011;33877;47.444;18.934;2022-07-23T05:41:51;8.30;;;5.18;;
48098;SDS011;33877;47.444;18.934;2022-07-23T05:44:22;7.45;;;4.97;;
48098;SDS011;33877;47.444;18.934;2022-07-23T05:46:52;9.20;;;5.07;;
48098;SDS011;33877;47.444;18.934;2022-07-23T05:49:22;7.25;;;4.47;;
48098;SDS011;33877;47.444;18.934;2022-07-23T05:51:52;8.32;;;4.93;;
48098;SDS011;33877;47.444;18.934;2022-07-23T05:54:24;8.75;;;4.93;;
48098;SDS011;33877;47.444;18.934;2022-07-23T05:57:04;7.25;;;5.00;;
48098;SDS011;33877;47.444;18.934;2022-07-23T05:59:36;8.20;;;5.07;;
48098;SDS011;33877;47.444;18.934;2022-07-23T06:02:04;9.48;;;4.90;;
48098;SDS011;33877;47.444;18.934;2022-07-23T06:04:34;10.05;;;4.87;;
48098;SDS011;33877;47.444;18.934;2022-07-23T06:07:07;10.40;;;5.15;;
48098;SDS011;33877;47.444;18.934;2022-07-23T06:09:37;9.82;;;5.43;;
48098;SDS011;33877;47.444;18.934;2022-07-23T06:12:08;9.77;;;5.40;;
48098;SDS011;33877;47.444;18.934;2022-07-23T06:14:38;12.77;;;5.43;;
48098;SDS011;33877;47.444;18.934;2022-07-23T06:19:38;10.35;;;4.22;;
48098;SDS011;33877;47.444;18.934;2022-07-23T06:22:07;9.50;;;5.03;;
48098;SDS011;33877;47.444;18.934;2022-07-23T06:24:37;7.50;;;4.78;;
48098;SDS011;33877;47.444;18.934;2022-07-23T06:27:06;7.35;;;4.47;;
48098;SDS011;33877;47.444;18.934;2022-07-23T06:29:36;8.48;;;4.03;;
48098;SDS011;33877;47.444;18.934;2022-07-23T06:32:04;9.32;;;4.62;;
48098;SDS011;33877;47.444;18.934;2022-07-23T06:34:34;8.07;;;4.22;;
48098;SDS011;33877;47.444;18.934;2022-07-23T06:37:06;9.32;;;4.75;;
48098;SDS011;33877;47.444;18.934;2022-07-23T06:39:36;9.13;;;5.43;;
48098;SDS011;33877;47.444;18.934;2022-07-23T06:42:06;10.52;;;5.22;;
48098;SDS011;33877;47.444;18.934;2022-07-23T06:44:42;7.18;;;4.45;;
48098;SDS011;33877;47.444;18.934;2022-07-23T06:47:15;9.10;;;4.65;;
48098;SDS011;33877;47.444;18.934;2022-07-23T06:49:43;9.32;;;4.55;;
48098;SDS011;33877;47.444;18.934;2022-07-23T06:52:11;9.30;;;5.25;;
48098;SDS011;33877;47.444;18.934;2022-07-23T06:54:39;8.13;;;4.80;;
48098;SDS011;33877;47.444;18.934;2022-07-23T06:57:11;10.90;;;4.40;;
48098;SDS011;33877;47.444;18.934;2022-07-23T06:59:46;9.15;;;4.60;;
48098;SDS011;33877;47.444;18.934;2022-07-23T07:02:23;11.05;;;5.90;;
48098;SDS011;33877;47.444;18.934;2022-07-23T07:04:54;8.35;;;4.75;;
48098;SDS011;33877;47.444;18.934;2022-07-23T07:07:33;10.02;;;4.18;;
48098;SDS011;33877;47.444;18.934;2022-07-23T07:12:36;9.32;;;4.50;;
48098;SDS011;33877;47.444;18.934;2022-07-23T07:15:06;6.47;;;4.37;;
48098;SDS011;33877;47.444;18.934;2022-07-23T07:17:37;10.00;;;4.35;;
48098;SDS011;33877;47.444;18.934;2022-07-23T07:20:06;13.90;;;5.28;;
48098;SDS011;33877;47.444;18.934;2022-07-23T07:22:36;9.57;;;4.10;;
48098;SDS011;33877;47.444;18.934;2022-07-23T07:25:04;9.15;;;4.75;;
48098;SDS011;33877;47.444;18.934;2022-07-23T07:27:36;7.68;;;4.25;;
48098;SDS011;33877;47.444;18.934;2022-07-23T07:30:05;7.60;;;4.62;;
48098;SDS011;33877;47.444;18.934;2022-07-23T07:32:34;9.43;;;4.72;;
48098;SDS011;33877;47.444;18.934;2022-07-23T07:35:24;8.35;;;4.43;;
48098;SDS011;33877;47.444;18.934;2022-07-23T07:37:53;9.00;;;4.00;;
48098;SDS011;33877;47.444;18.934;2022-07-23T07:40:22;7.03;;;4.25;;
48098;SDS011;33877;47.444;18.934;2022-07-23T07:43:01;10.93;;;4.75;;
48098;SDS011;33877;47.444;18.934;2022-07-23T07:45:31;10.48;;;5.03;;
48098;SDS011;33877;47.444;18.934;2022-07-23T07:48:02;8.43;;;4.30;;
48098;SDS011;33877;47.444;18.934;2022-07-23T07:50:31;7.05;;;4.20;;
48098;SDS011;33877;47.444;18.934;2022-07-23T07:55:30;6.65;;;3.92;;
48098;SDS011;33877;47.444;18.934;2022-07-23T07:58:02;8.20;;;3.62;;
48098;SDS011;33877;47.444;18.934;2022-07-23T08:00:34;7.37;;;4.22;;
48098;SDS011;33877;47.444;18.934;2022-07-23T08:03:05;6.68;;;3.78;;
48098;SDS011;33877;47.444;18.934;2022-07-23T08:05:34;7.57;;;4.22;;
48098;SDS011;33877;47.444;18.934;2022-07-23T08:10:33;7.07;;;3.58;;
48098;SDS011;33877;47.444;18.934;2022-07-23T08:13:04;9.85;;;4.43;;
48098;SDS011;33877;47.444;18.934;2022-07-23T08:15:34;7.75;;;3.78;;
48098;SDS011;33877;47.444;18.934;2022-07-23T08:18:05;9.80;;;4.15;;
48098;SDS011;33877;47.444;18.934;2022-07-23T08:20:33;6.12;;;3.72;;
48098;SDS011;33877;47.444;18.934;2022-07-23T08:23:03;8.07;;;3.50;;
48098;SDS011;33877;47.444;18.934;2022-07-23T08:25:35;6.30;;;3.87;;
48098;SDS011;33877;47.444;18.934;2022-07-23T08:28:07;6.80;;;3.72;;
48098;SDS011;33877;47.444;18.934;2022-07-23T08:30:38;7.43;;;3.20;;
48098;SDS011;33877;47.444;18.934;2022-07-23T08:33:09;8.98;;;4.18;;
48098;SDS011;33877;47.444;18.934;2022-07-23T08:36:02;5.40;;;3.55;;
48098;SDS011;33877;47.444;18.934;2022-07-23T08:38:32;5.93;;;3.87;;
48098;SDS011;33877;47.444;18.934;2022-07-23T08:41:02;13.23;;;4.15;;
48098;SDS011;33877;47.444;18.934;2022-07-23T08:43:32;5.97;;;3.60;;
48098;SDS011;33877;47.444;18.934;2022-07-23T08:46:06;8.48;;;3.92;;
48098;SDS011;33877;47.444;18.934;2022-07-23T08:48:35;7.95;;;4.05;;
48098;SDS011;33877;47.444;18.934;2022-07-23T08:51:09;7.53;;;3.60;;
48098;SDS011;33877;47.444;18.934;2022-07-23T08:56:09;8.60;;;4.25;;
48098;SDS011;33877;47.444;18.934;2022-07-23T08:58:38;8.35;;;4.12;;
48098;SDS011;33877;47.444;18.934;2022-07-23T09:01:07;8.27;;;4.05;;
48098;SDS011;33877;47.444;18.934;2022-07-23T09:03:38;7.75;;;3.95;;
48098;SDS011;33877;47.444;18.934;2022-07-23T09:06:08;7.22;;;3.75;;
48098;SDS011;33877;47.444;18.934;2022-07-23T09:08:39;8.10;;;4.15;;
48098;SDS011;33877;47.444;18.934;2022-07-23T09:11:11;9.60;;;3.80;;
48098;SDS011;33877;47.444;18.934;2022-07-23T09:16:29;9.85;;;4.50;;
48098;SDS011;33877;47.444;18.934;2022-07-23T09:19:04;7.70;;;3.83;;
48098;SDS011;33877;47.444;18.934;2022-07-23T09:21:35;6.62;;;3.80;;
48098;SDS011;33877;47.444;18.934;2022-07-23T09:24:10;53.17;;;7.07;;
48098;SDS011;33877;47.444;18.934;2022-07-23T09:26:46;13.40;;;4.18;;
48098;SDS011;33877;47.444;18.934;2022-07-23T09:29:25;7.87;;;3.60;;
48098;SDS011;33877;47.444;18.934;2022-07-23T09:31:56;7.75;;;3.67;;
48098;SDS011;33877;47.444;18.934;2022-07-23T09:34:35;6.87;;;3.47;;
48098;SDS011;33877;47.444;18.934;2022-07-23T09:37:10;13.73;;;4.10;;
48098;SDS011;33877;47.444;18.934;2022-07-23T09:39:45;9.63;;;3.65;;
48098;SDS011;33877;47.444;18.934;2022-07-23T09:42:21;6.18;;;4.00;;
48098;SDS011;33877;47.444;18.934;2022-07-23T09:44:53;7.20;;;3.58;;
48098;SDS011;33877;47.444;18.934;2022-07-23T09:47:24;7.68;;;4.03;;
48098;SDS011;33877;47.444;18.934;2022-07-23T09:50:09;7.45;;;4.22;;
48098;SDS011;33877;47.444;18.934;2022-07-23T09:52:45;7.28;;;4.07;;
48098;SDS011;33877;47.444;18.934;2022-07-23T09:55:17;10.20;;;4.85;;
48098;SDS011;33877;47.444;18.934;2022-07-23T09:57:47;9.20;;;4.62;;
48098;SDS011;33877;47.444;18.934;2022-07-23T10:00:23;7.93;;;4.20;;
48098;SDS011;33877;47.444;18.934;2022-07-23T10:02:56;20.62;;;6.25;;
48098;SDS011;33877;47.444;18.934;2022-07-23T10:05:29;7.80;;;4.50;;
48098;SDS011;33877;47.444;18.934;2022-07-23T10:08:07;6.78;;;4.00;;
48098;SDS011;33877;47.444;18.934;2022-07-23T10:10:41;7.87;;;3.78;;
48098;SDS011;33877;47.444;18.934;2022-07-23T10:13:13;7.78;;;4.03;;
48098;SDS011;33877;47.444;18.934;2022-07-23T10:15:58;8.98;;;3.92;;
48098;SDS011;33877;47.444;18.934;2022-07-23T10:18:29;9.68;;;3.80;;
48098;SDS011;33877;47.444;18.934;2022-07-23T10:23:31;8.45;;;3.90;;
48098;SDS011;33877;47.444;18.934;2022-07-23T10:26:35;5.62;;;3.72;;
48098;SDS011;33877;47.444;18.934;2022-07-23T10:32:40;8.35;;;3.78;;
48098;SDS011;33877;47.444;18.934;2022-07-23T10:35:31;5.45;;;3.30;;
48098;SDS011;33877;47.444;18.934;2022-07-23T10:38:07;8.05;;;4.40;;
48098;SDS011;33877;47.444;18.934;2022-07-23T10:43:31;8.27;;;3.58;;
48098;SDS011;33877;47.444;18.934;2022-07-23T10:54:48;8.48;;;3.60;;
48098;SDS011;33877;47.444;18.934;2022-07-23T10:57:24;6.20;;;4.07;;
48098;SDS011;33877;47.444;18.934;2022-07-23T11:02:32;6.97;;;3.55;;
48098;SDS011;33877;47.444;18.934;2022-07-23T11:05:06;7.15;;;3.83;;
48098;SDS011;33877;47.444;18.934;2022-07-23T11:08:12;36.33;;;5.53;;
48098;SDS011;33877;47.444;18.934;2022-07-23T11:10:34;7.12;;;3.28;;
48098;SDS011;33877;47.444;18.934;2022-07-23T11:31:54;6.45;;;3.75;;
48098;SDS011;33877;47.444;18.934;2022-07-23T11:34:30;8.77;;;4.68;;
48098;SDS011;33877;47.444;18.934;2022-07-23T11:37:00;9.00;;;5.10;;
48098;SDS011;33877;47.444;18.934;2022-07-23T11:39:30;8.33;;;4.60;;
48098;SDS011;33877;47.444;18.934;2022-07-23T11:41:59;9.60;;;4.30;;
48098;SDS011;33877;47.444;18.934;2022-07-23T11:44:30;9.23;;;4.65;;
48098;SDS011;33877;47.444;18.934;2022-07-23T11:47:10;7.97;;;4.20;;
48098;SDS011;33877;47.444;18.934;2022-07-23T11:52:23;7.30;;;4.40;;
48098;SDS011;33877;47.444;18.934;2022-07-23T11:57:25;7.65;;;4.12;;
48098;SDS011;33877;47.444;18.934;2022-07-23T12:00:02;9.57;;;4.82;;
48098;SDS011;33877;47.444;18.934;2022-07-23T12:02:45;7.82;;;4.55;;
48098;SDS011;33877;47.444;18.934;2022-07-23T12:05:20;8.23;;;4.60;;
48098;SDS011;33877;47.444;18.934;2022-07-23T12:07:50;10.48;;;4.50;;
48098;SDS011;33877;47.444;18.934;2022-07-23T12:10:27;7.68;;;4.60;;
48098;SDS011;33877;47.444;18.934;2022-07-23T12:12:58;6.87;;;4.20;;
48098;SDS011;33877;47.444;18.934;2022-07-23T12:15:32;10.23;;;4.75;;
48098;SDS011;33877;47.444;18.934;2022-07-23T12:18:05;7.97;;;5.00;;
48098;SDS011;33877;47.444;18.934;2022-07-23T12:20:35;7.40;;;4.60;;
48098;SDS011;33877;47.444;18.934;2022-07-23T12:23:06;8.75;;;4.70;;
48098;SDS011;33877;47.444;18.934;2022-07-23T12:25:37;8.60;;;4.43;;
48098;SDS011;33877;47.444;18.934;2022-07-23T12:28:07;7.45;;;4.78;;
48098;SDS011;33877;47.444;18.934;2022-07-23T12:30:45;6.35;;;5.10;;
48098;SDS011;33877;47.444;18.934;2022-07-23T12:33:15;9.07;;;4.90;;
48098;SDS011;33877;47.444;18.934;2022-07-23T12:35:50;8.82;;;4.32;;
48098;SDS011;33877;47.444;18.934;2022-07-23T12:38:20;9.17;;;4.77;;
48098;SDS011;33877;47.444;18.934;2022-07-23T12:40:53;9.00;;;4.70;;
48098;SDS011;33877;47.444;18.934;2022-07-23T12:43:27;8.65;;;4.78;;
48098;SDS011;33877;47.444;18.934;2022-07-23T12:46:02;7.40;;;4.70;;
48098;SDS011;33877;47.444;18.934;2022-07-23T12:48:31;8.90;;;4.40;;
48098;SDS011;33877;47.444;18.934;2022-07-23T12:51:15;9.30;;;5.00;;
48098;SDS011;33877;47.444;18.934;2022-07-23T12:54:08;9.40;;;4.47;;
48098;SDS011;33877;47.444;18.934;2022-07-23T12:56:38;9.57;;;4.40;;
48098;SDS011;33877;47.444;18.934;2022-07-23T12:59:15;7.93;;;4.53;;
48098;SDS011;33877;47.444;18.934;2022-07-23T13:04:22;6.47;;;3.78;;
48098;SDS011;33877;47.444;18.934;2022-07-23T13:06:54;7.10;;;4.30;;
48098;SDS011;33877;47.444;18.934;2022-07-23T13:09:30;7.20;;;4.47;;
48098;SDS011;33877;47.444;18.934;2022-07-23T13:12:09;7.72;;;4.35;;
48098;SDS011;33877;47.444;18.934;2022-07-23T13:14:38;7.93;;;4.30;;
48098;SDS011;33877;47.444;18.934;2022-07-23T13:17:06;7.82;;;4.18;;
48098;SDS011;33877;47.444;18.934;2022-07-23T13:19:35;6.32;;;4.30;;
48098;SDS011;33877;47.444;18.934;2022-07-23T13:22:03;6.32;;;4.20;;
48098;SDS011;33877;47.444;18.934;2022-07-23T13:24:36;7.30;;;4.32;;
48098;SDS011;33877;47.444;18.934;2022-07-23T13:27:06;11.10;;;4.90;;
48098;SDS011;33877;47.444;18.934;2022-07-23T13:29:40;7.57;;;5.00;;
48098;SDS011;33877;47.444;18.934;2022-07-23T13:32:08;5.65;;;4.35;;
48098;SDS011;33877;47.444;18.934;2022-07-23T13:34:41;8.30;;;4.70;;
48098;SDS011;33877;47.444;18.934;2022-07-23T13:37:09;9.38;;;4.65;;
48098;SDS011;33877;47.444;18.934;2022-07-23T13:39:37;8.05;;;5.37;;
48098;SDS011;33877;47.444;18.934;2022-07-23T13:42:06;8.15;;;4.80;;
48098;SDS011;33877;47.444;18.934;2022-07-23T13:44:35;7.37;;;5.12;;
48098;SDS011;33877;47.444;18.934;2022-07-23T13:47:03;7.68;;;5.15;;
48098;SDS011;33877;47.444;18.934;2022-07-23T13:49:39;8.60;;;5.22;;
48098;SDS011;33877;47.444;18.934;2022-07-23T13:52:07;7.60;;;4.90;;
48098;SDS011;33877;47.444;18.934;2022-07-23T13:54:36;6.75;;;4.90;;
48098;SDS011;33877;47.444;18.934;2022-07-23T13:57:04;7.30;;;5.15;;
48098;SDS011;33877;47.444;18.934;2022-07-23T13:59:33;10.45;;;5.85;;
48098;SDS011;33877;47.444;18.934;2022-07-23T14:02:02;8.75;;;4.82;;
48098;SDS011;33877;47.444;18.934;2022-07-23T14:04:52;6.97;;;5.10;;
48098;SDS011;33877;47.444;18.934;2022-07-23T14:07:20;6.90;;;5.50;;
48098;SDS011;33877;47.444;18.934;2022-07-23T14:09:49;7.85;;;5.47;;
48098;SDS011;33877;47.444;18.934;2022-07-23T14:12:19;10.68;;;5.05;;
48098;SDS011;33877;47.444;18.934;2022-07-23T14:14:50;8.27;;;4.85;;
48098;SDS011;33877;47.444;18.934;2022-07-23T14:17:18;8.88;;;4.80;;
48098;SDS011;33877;47.444;18.934;2022-07-23T14:19:46;7.10;;;5.10;;
48098;SDS011;33877;47.444;18.934;2022-07-23T14:22:15;10.00;;;5.47;;
48098;SDS011;33877;47.444;18.934;2022-07-23T14:24:43;5.75;;;4.80;;
48098;SDS011;33877;47.444;18.934;2022-07-23T14:27:11;7.00;;;5.47;;
48098;SDS011;33877;47.444;18.934;2022-07-23T14:29:39;8.82;;;5.22;;
48098;SDS011;33877;47.444;18.934;2022-07-23T14:32:07;7.45;;;4.70;;
48098;SDS011;33877;47.444;18.934;2022-07-23T14:34:36;9.50;;;4.50;;
48098;SDS011;33877;47.444;18.934;2022-07-23T14:37:05;7.20;;;4.20;;
48098;SDS011;33877;47.444;18.934;2022-07-23T14:39:34;7.12;;;4.22;;
48098;SDS011;33877;47.444;18.934;2022-07-23T14:42:02;6.45;;;3.58;;
48098;SDS011;33877;47.444;18.934;2022-07-23T14:44:30;5.37;;;3.62;;
48098;SDS011;33877;47.444;18.934;2022-07-23T14:46:59;6.60;;;4.40;;
48098;SDS011;33877;47.444;18.934;2022-07-23T14:49:27;8.88;;;4.87;;
48098;SDS011;33877;47.444;18.934;2022-07-23T14:51:56;7.18;;;4.85;;
48098;SDS011;33877;47.444;18.934;2022-07-23T14:54:26;8.15;;;4.82;;
48098;SDS011;33877;47.444;18.934;2022-07-23T14:56:55;8.20;;;4.97;;
48098;SDS011;33877;47.444;18.934;2022-07-23T14:59:26;8.77;;;5.00;;
48098;SDS011;33877;47.444;18.934;2022-07-23T15:01:55;9.20;;;5.37;;
48098;SDS011;33877;47.444;18.934;2022-07-23T15:04:23;7.50;;;5.60;;
48098;SDS011;33877;47.444;18.934;2022-07-23T15:07:05;10.93;;;5.70;;
48098;SDS011;33877;47.444;18.934;2022-07-23T15:09:33;7.68;;;6.07;;
48098;SDS011;33877;47.444;18.934;2022-07-23T15:12:03;9.70;;;7.62;;
48098;SDS011;33877;47.444;18.934;2022-07-23T15:14:35;9.35;;;7.47;;
48098;SDS011;33877;47.444;18.934;2022-07-23T15:17:04;8.23;;;7.07;;
48098;SDS011;33877;47.444;18.934;2022-07-23T15:19:32;10.48;;;8.68;;
48098;SDS011;33877;47.444;18.934;2022-07-23T15:22:04;10.48;;;9.38;;
48098;SDS011;33877;47.444;18.934;2022-07-23T15:24:34;13.82;;;10.23;;
48098;SDS011;33877;47.444;18.934;2022-07-23T15:27:02;14.98;;;9.80;;
48098;SDS011;33877;47.444;18.934;2022-07-23T15:29:31;29.98;;;9.88;;
48098;SDS011;33877;47.444;18.934;2022-07-23T15:31:59;21.30;;;8.45;;
48098;SDS011;33877;47.444;18.934;2022-07-23T15:34:28;19.33;;;8.60;;
48098;SDS011;33877;47.444;18.934;2022-07-23T15:37:00;34.67;;;9.43;;
48098;SDS011;33877;47.444;18.934;2022-07-23T15:39:37;73.28;;;12.05;;
48098;SDS011;33877;47.444;18.934;2022-07-23T15:42:07;47.05;;;10.07;;
48098;SDS011;33877;47.444;18.934;2022-07-23T15:44:42;27.58;;;7.90;;
48098;SDS011;33877;47.444;18.934;2022-07-23T15:47:14;17.52;;;8.13;;
48098;SDS011;33877;47.444;18.934;2022-07-23T15:49:44;19.98;;;7.62;;
48098;SDS011;33877;47.444;18.934;2022-07-23T15:52:13;16.12;;;8.63;;
48098;SDS011;33877;47.444;18.934;2022-07-23T15:54:41;17.30;;;7.75;;
48098;SDS011;33877;47.444;18.934;2022-07-23T15:57:10;14.32;;;7.22;;
48098;SDS011;33877;47.444;18.934;2022-07-23T15:59:39;12.93;;;6.87;;
48098;SDS011;33877;47.444;18.934;2022-07-23T16:02:07;10.60;;;6.65;;
48098;SDS011;33877;47.444;18.934;2022-07-23T16:04:38;12.68;;;7.40;;
48098;SDS011;33877;47.444;18.934;2022-07-23T16:07:06;9.43;;;7.62;;
48098;SDS011;33877;47.444;18.934;2022-07-23T16:09:42;13.35;;;8.07;;
48098;SDS011;33877;47.444;18.934;2022-07-23T16:12:12;13.43;;;8.00;;